createdAt,value
2019-02-25T00:00:51.169Z,2.35
2019-02-25T00:01:51.161Z,2.33
2019-02-25T00:02:51.150Z,2.42
2019-02-25T00:03:51.139Z,2.31
2019-02-25T00:04:51.130Z,2.32
2019-02-25T00:05:51.120Z,2.33
2019-02-25T00:06:51.110Z,2.35
2019-02-25T00:07:51.101Z,2.26
2019-02-25T00:08:51.089Z,2.24
2019-02-25T00:09:51.081Z,2.17
2019-02-25T00:10:51.070Z,2.29
2019-02-25T00:11:51.060Z,2.14
2019-02-25T00:12:51.048Z,2.18
2019-02-25T00:13:51.039Z,2.17
2019-02-25T00:14:51.029Z,2.17
2019-02-25T00:15:51.019Z,2.29
2019-02-25T00:16:51.015Z,2.24
2019-02-25T00:17:50.999Z,2.32
2019-02-25T00:18:50.992Z,2.29
2019-02-25T00:19:50.982Z,2.28
2019-02-25T00:20:50.968Z,2.31
2019-02-25T00:21:50.959Z,2.31
2019-02-25T00:22:50.946Z,2.44
2019-02-25T00:23:50.940Z,2.57
2019-02-25T00:24:50.929Z,2.60
2019-02-25T00:25:50.918Z,2.57
2019-02-25T00:26:50.912Z,2.60
2019-02-25T00:27:50.894Z,2.64
2019-02-25T00:28:50.887Z,2.57
2019-02-25T00:29:50.877Z,2.62
2019-02-25T00:30:50.874Z,2.60
2019-02-25T00:31:50.857Z,2.60
2019-02-25T00:32:50.850Z,2.64
2019-02-25T00:33:50.839Z,2.62
2019-02-25T00:34:50.826Z,2.64
2019-02-25T00:35:50.820Z,2.64
2019-02-25T00:36:50.808Z,2.53
2019-02-25T00:37:50.799Z,2.47
2019-02-25T00:38:50.790Z,2.43
2019-02-25T00:39:50.778Z,2.46
2019-02-25T00:40:50.772Z,2.44
2019-02-25T00:41:50.757Z,2.29
2019-02-25T00:42:50.749Z,2.31
2019-02-25T00:43:50.738Z,2.20
2019-02-25T00:44:50.727Z,2.22
2019-02-25T00:45:50.718Z,2.14
2019-02-25T00:46:50.709Z,2.15
2019-02-25T00:47:50.699Z,2.14
2019-02-25T00:48:50.684Z,2.17
2019-02-25T00:49:50.678Z,2.17
2019-02-25T00:50:50.672Z,2.10
2019-02-25T00:51:50.657Z,2.20
2019-02-25T00:52:50.647Z,2.08
2019-02-25T00:53:50.636Z,2.00
2019-02-25T00:54:50.625Z,2.04
2019-02-25T00:55:50.616Z,2.02
2019-02-25T00:56:50.605Z,2.00
2019-02-25T00:57:50.595Z,2.04
2019-02-25T00:58:50.581Z,1.97
2019-02-25T00:59:50.582Z,1.99
2019-02-25T01:00:50.566Z,1.94
2019-02-25T01:01:50.555Z,1.95
2019-02-25T01:02:50.544Z,1.97
2019-02-25T01:03:50.533Z,1.84
2019-02-25T01:04:50.525Z,2.00
2019-02-25T01:05:50.515Z,1.91
2019-02-25T01:06:50.501Z,1.88
2019-02-25T01:07:50.492Z,1.92
2019-02-25T01:08:50.482Z,1.85
2019-02-25T01:09:50.468Z,1.85
2019-02-25T01:10:50.461Z,1.84
2019-02-25T01:11:50.452Z,1.89
2019-02-25T01:12:50.443Z,1.78
2019-02-25T01:13:50.435Z,1.88
2019-02-25T01:14:50.422Z,1.84
2019-02-25T01:15:50.412Z,1.77
2019-02-25T01:16:50.401Z,1.77
2019-02-25T01:17:50.389Z,1.81
2019-02-25T01:18:50.377Z,1.76
2019-02-25T01:19:50.364Z,1.73
2019-02-25T01:20:50.355Z,1.74
2019-02-25T01:21:50.386Z,1.78
2019-02-25T01:22:50.337Z,1.77
2019-02-25T01:23:50.325Z,1.85
2019-02-25T01:24:50.318Z,1.81
2019-02-25T01:25:50.305Z,1.78
2019-02-25T01:26:50.294Z,1.76
2019-02-25T01:27:50.284Z,1.76
2019-02-25T01:28:50.273Z,1.71
2019-02-25T01:29:50.262Z,1.78
2019-02-25T01:30:50.255Z,1.63
2019-02-25T01:31:50.240Z,1.66
2019-02-25T01:32:50.231Z,1.58
2019-02-25T01:33:50.219Z,1.58
2019-02-25T01:34:50.212Z,1.50
2019-02-25T01:35:50.206Z,1.48
2019-02-25T01:36:50.191Z,1.49
2019-02-25T01:37:50.179Z,1.53
2019-02-25T01:38:50.168Z,1.45
2019-02-25T01:39:50.156Z,1.48
2019-02-25T01:40:50.148Z,1.49
2019-02-25T01:41:50.135Z,1.63
2019-02-25T01:42:50.136Z,1.81
2019-02-25T01:43:50.120Z,1.87
2019-02-25T01:44:50.106Z,1.87
2019-02-25T01:45:50.093Z,2.07
2019-02-25T01:46:50.085Z,2.08
2019-02-25T01:47:50.073Z,2.15
2019-02-25T01:48:50.065Z,2.13
2019-02-25T01:49:50.051Z,2.14
2019-02-25T01:50:50.040Z,2.17
2019-02-25T01:51:50.030Z,2.20
2019-02-25T01:52:50.019Z,2.18
2019-02-25T01:53:50.010Z,2.22
2019-02-25T01:54:50.002Z,2.22
2019-02-25T01:55:49.988Z,2.22
2019-02-25T01:56:49.978Z,2.26
2019-02-25T01:57:49.972Z,2.17
2019-02-25T01:58:49.959Z,2.14
2019-02-25T01:59:49.945Z,2.11
2019-02-25T02:00:49.934Z,2.10
2019-02-25T02:01:49.926Z,2.11
2019-02-25T02:02:49.911Z,2.22
2019-02-25T02:03:49.902Z,2.14
2019-02-25T02:04:49.891Z,2.13
2019-02-25T02:05:49.887Z,2.17
2019-02-25T02:06:49.871Z,2.17
2019-02-25T02:07:49.865Z,2.15
2019-02-25T02:08:49.849Z,2.17
2019-02-25T02:09:49.836Z,2.15
2019-02-25T02:10:49.826Z,2.08
2019-02-25T02:11:49.816Z,2.10
2019-02-25T02:12:49.808Z,2.14
2019-02-25T02:13:49.794Z,2.08
2019-02-25T02:14:49.786Z,2.15
2019-02-25T02:15:49.774Z,2.17
2019-02-25T02:16:49.765Z,2.11
2019-02-25T02:17:49.755Z,2.17
2019-02-25T02:18:49.737Z,2.08
2019-02-25T02:19:49.729Z,2.14
2019-02-25T02:20:49.720Z,2.13
2019-02-25T02:21:49.709Z,2.17
2019-02-25T02:22:49.699Z,2.18
2019-02-25T02:23:49.690Z,2.26
2019-02-25T02:24:49.679Z,2.18
2019-02-25T02:25:49.669Z,2.26
2019-02-25T02:26:49.658Z,2.20
2019-02-25T02:27:49.648Z,2.22
2019-02-25T02:28:49.644Z,2.25
2019-02-25T02:29:49.625Z,2.22
2019-02-25T02:30:49.619Z,2.13
2019-02-25T02:31:49.606Z,2.10
2019-02-25T02:32:49.596Z,2.07
2019-02-25T02:33:49.586Z,1.99
2019-02-25T02:34:49.573Z,2.07
2019-02-25T02:35:49.563Z,2.00
2019-02-25T02:36:49.562Z,1.89
2019-02-25T02:37:49.541Z,1.87
2019-02-25T02:38:49.529Z,1.84
2019-02-25T02:39:49.520Z,1.95
2019-02-25T02:40:49.519Z,2.02
2019-02-25T02:41:49.503Z,1.99
2019-02-25T02:42:49.494Z,1.97
2019-02-25T02:43:49.478Z,1.95
2019-02-25T02:44:49.487Z,1.92
2019-02-25T02:45:49.467Z,2.07
2019-02-25T02:46:49.449Z,2.07
2019-02-25T02:47:49.429Z,2.13
2019-02-25T02:48:49.425Z,2.06
2019-02-25T02:49:49.415Z,2.00
2019-02-25T02:50:49.408Z,2.06
2019-02-25T02:51:49.395Z,2.02
2019-02-25T02:52:49.384Z,2.04
2019-02-25T02:53:49.374Z,2.04
2019-02-25T02:54:49.371Z,2.10
2019-02-25T02:55:49.357Z,2.18
2019-02-25T02:56:49.343Z,2.10
2019-02-25T02:57:49.329Z,2.18
2019-02-25T02:58:49.321Z,2.24
2019-02-25T02:59:49.311Z,2.18
2019-02-25T03:00:49.300Z,2.08
2019-02-25T03:01:49.287Z,2.14
2019-02-25T03:02:49.280Z,2.10
2019-02-25T03:03:49.266Z,2.10
2019-02-25T03:04:49.257Z,2.15
2019-02-25T03:05:49.245Z,2.17
2019-02-25T03:06:49.239Z,2.07
2019-02-25T03:07:49.224Z,2.06
2019-02-25T03:08:49.214Z,1.92
2019-02-25T03:09:49.202Z,2.00
2019-02-25T03:10:49.192Z,1.81
2019-02-25T03:11:49.180Z,1.71
2019-02-25T03:12:49.170Z,1.74
2019-02-25T03:13:49.162Z,1.70
2019-02-25T03:14:49.150Z,1.68
2019-02-25T03:15:49.138Z,1.68
2019-02-25T03:16:49.127Z,1.63
2019-02-25T03:17:49.118Z,1.58
2019-02-25T03:18:49.107Z,1.62
2019-02-25T03:19:49.100Z,1.59
2019-02-25T03:20:49.086Z,1.48
2019-02-25T03:21:49.076Z,1.48
2019-02-25T03:22:49.064Z,1.50
2019-02-25T03:23:49.053Z,1.58
2019-02-25T03:24:49.044Z,1.41
2019-02-25T03:25:49.031Z,1.55
2019-02-25T03:26:49.020Z,1.42
2019-02-25T03:27:49.015Z,1.49
2019-02-25T03:28:48.999Z,1.42
2019-02-25T03:29:48.987Z,1.35
2019-02-25T03:30:48.980Z,1.44
2019-02-25T03:31:48.966Z,1.44
2019-02-25T03:32:48.956Z,1.40
2019-02-25T03:33:48.945Z,1.35
2019-02-25T03:34:48.934Z,1.34
2019-02-25T03:35:48.924Z,1.32
2019-02-25T03:36:48.920Z,1.19
2019-02-25T03:37:48.903Z,1.19
2019-02-25T03:38:48.892Z,1.12
2019-02-25T03:39:48.880Z,1.13
2019-02-25T03:40:48.871Z,1.01
2019-02-25T03:41:48.860Z,1.01
2019-02-25T03:42:48.847Z,1.12
2019-02-25T03:43:48.848Z,1.06
2019-02-25T03:44:48.828Z,1.02
2019-02-25T03:45:48.815Z,0.98
2019-02-25T03:46:48.801Z,1.13
2019-02-25T03:47:48.794Z,0.96
2019-02-25T03:48:48.782Z,1.05
2019-02-25T03:49:48.768Z,1.01
2019-02-25T03:50:48.757Z,0.99
2019-02-25T03:51:48.750Z,1.02
2019-02-25T03:52:48.738Z,0.99
2019-02-25T03:53:48.724Z,1.01
2019-02-25T03:54:48.716Z,1.02
2019-02-25T03:55:48.710Z,1.05
2019-02-25T03:56:48.696Z,1.02
2019-02-25T03:57:48.681Z,1.01
2019-02-25T03:58:48.670Z,1.10
2019-02-25T03:59:48.661Z,1.04
2019-02-25T04:00:48.655Z,1.08
2019-02-25T04:01:48.638Z,1.13
2019-02-25T04:02:48.629Z,1.10
2019-02-25T04:03:48.616Z,0.96
2019-02-25T04:04:48.607Z,0.94
2019-02-25T04:05:48.599Z,0.91
2019-02-25T04:06:48.587Z,0.95
2019-02-25T04:07:48.574Z,0.88
2019-02-25T04:08:48.562Z,0.87
2019-02-25T04:09:48.550Z,0.87
2019-02-25T04:10:48.538Z,0.84
2019-02-25T04:11:48.529Z,0.83
2019-02-25T04:12:48.521Z,0.78
2019-02-25T04:13:48.511Z,0.78
2019-02-25T04:14:48.498Z,0.84
2019-02-25T04:15:48.543Z,0.83
2019-02-25T04:16:48.475Z,0.69
2019-02-25T04:17:48.467Z,0.80
2019-02-25T04:18:48.451Z,0.84
2019-02-25T04:19:48.437Z,0.73
2019-02-25T04:20:48.431Z,0.83
2019-02-25T04:21:48.418Z,0.88
2019-02-25T04:22:48.417Z,0.88
2019-02-25T04:23:48.397Z,0.78
2019-02-25T04:24:48.386Z,0.87
2019-02-25T04:25:48.372Z,0.81
2019-02-25T04:26:48.365Z,0.94
2019-02-25T04:27:48.354Z,0.81
2019-02-25T04:28:48.339Z,0.86
2019-02-25T04:29:48.329Z,0.86
2019-02-25T04:30:48.319Z,0.87
2019-02-25T04:31:48.305Z,0.80
2019-02-25T04:32:48.303Z,0.76
2019-02-25T04:33:48.284Z,0.70
2019-02-25T04:34:48.273Z,0.86
2019-02-25T04:35:48.265Z,0.74
2019-02-25T04:36:48.253Z,0.74
2019-02-25T04:37:48.238Z,0.74
2019-02-25T04:38:48.227Z,0.69
2019-02-25T04:39:48.216Z,0.73
2019-02-25T04:40:48.209Z,0.68
2019-02-25T04:41:48.191Z,0.63
2019-02-25T04:42:48.180Z,0.56
2019-02-25T04:43:48.174Z,0.59
2019-02-25T04:44:48.162Z,0.60
2019-02-25T04:45:48.148Z,0.50
2019-02-25T04:46:48.138Z,0.58
2019-02-25T04:47:48.128Z,0.56
2019-02-25T04:48:48.119Z,0.50
2019-02-25T04:49:48.108Z,0.52
2019-02-25T04:50:48.091Z,0.62
2019-02-25T04:51:48.079Z,0.49
2019-02-25T04:52:48.072Z,0.41
2019-02-25T04:53:48.057Z,0.43
2019-02-25T04:54:48.054Z,0.46
2019-02-25T04:55:48.058Z,0.43
2019-02-25T04:56:48.024Z,0.43
2019-02-25T04:57:48.013Z,0.44
2019-02-25T04:58:48.000Z,0.36
2019-02-25T04:59:47.983Z,0.32
2019-02-25T05:00:47.977Z,0.32
2019-02-25T05:01:47.979Z,0.32
2019-02-25T05:02:47.950Z,0.40
2019-02-25T05:03:47.942Z,0.34
2019-02-25T05:04:47.934Z,0.32
2019-02-25T05:05:47.919Z,0.34
2019-02-25T05:06:47.908Z,0.40
2019-02-25T05:07:47.898Z,0.43
2019-02-25T05:08:47.888Z,0.49
2019-02-25T05:09:47.879Z,0.59
2019-02-25T05:10:47.862Z,0.52
2019-02-25T05:11:47.851Z,0.56
2019-02-25T05:12:47.839Z,0.49
2019-02-25T05:13:47.826Z,0.56
2019-02-25T05:14:47.815Z,0.52
2019-02-25T05:15:47.805Z,0.50
2019-02-25T05:16:47.792Z,0.47
2019-02-25T05:17:47.781Z,0.46
2019-02-25T05:18:47.769Z,0.39
2019-02-25T05:19:47.764Z,0.44
2019-02-25T05:20:47.756Z,0.37
2019-02-25T05:21:47.736Z,0.36
2019-02-25T05:22:47.728Z,0.39
2019-02-25T05:23:47.711Z,0.40
2019-02-25T05:24:47.699Z,0.40
2019-02-25T05:25:47.687Z,0.44
2019-02-25T05:26:47.678Z,0.34
2019-02-25T05:27:47.668Z,0.43
2019-02-25T05:28:47.656Z,0.44
2019-02-25T05:29:47.643Z,0.39
2019-02-25T05:30:47.637Z,0.37
2019-02-25T05:31:47.618Z,0.31
2019-02-25T05:32:47.609Z,0.34
2019-02-25T05:33:47.600Z,0.31
2019-02-25T05:34:47.584Z,0.21
2019-02-25T05:35:47.573Z,0.11
2019-02-25T05:36:47.561Z,0.18
2019-02-25T05:37:47.548Z,0.26
2019-02-25T05:38:47.539Z,0.19
2019-02-25T05:39:47.526Z,0.15
2019-02-25T05:40:47.519Z,0.11
2019-02-25T05:41:47.504Z,0.11
2019-02-25T05:42:47.490Z,0.11
2019-02-25T05:43:47.488Z,0.11
2019-02-25T05:44:47.470Z,0.11
2019-02-25T05:45:47.456Z,0.15
2019-02-25T05:46:47.447Z,0.15
2019-02-25T05:47:47.440Z,0.11
2019-02-25T05:48:47.422Z,0.12
2019-02-25T05:49:47.457Z,0.12
2019-02-25T05:50:49.541Z,0.10
2019-02-25T05:51:47.388Z,0.10
2019-02-25T05:52:47.378Z,0.15
2019-02-25T05:53:47.361Z,0.15
2019-02-25T05:54:47.355Z,0.11
2019-02-25T05:55:47.339Z,0.05
2019-02-25T05:56:47.331Z,0.07
2019-02-25T05:57:47.316Z,-0.06
2019-02-25T05:58:47.302Z,0.00
2019-02-25T05:59:47.293Z,0.00
2019-02-25T06:00:47.282Z,-0.02
2019-02-25T06:01:47.272Z,-0.07
2019-02-25T06:02:47.264Z,-0.02
2019-02-25T06:03:47.250Z,0.03
2019-02-25T06:04:47.236Z,0.04
2019-02-25T06:05:47.227Z,0.08
2019-02-25T06:06:47.210Z,0.11
2019-02-25T06:07:47.204Z,0.08
2019-02-25T06:08:47.187Z,0.05
2019-02-25T06:09:47.177Z,0.26
2019-02-25T06:10:47.164Z,0.18
2019-02-25T06:11:47.153Z,0.10
2019-02-25T06:12:47.141Z,0.18
2019-02-25T06:13:47.130Z,0.18
2019-02-25T06:14:47.118Z,0.28
2019-02-25T06:15:47.108Z,0.19
2019-02-25T06:16:47.101Z,0.21
2019-02-25T06:17:47.080Z,0.21
2019-02-25T06:18:47.070Z,0.29
2019-02-25T06:19:47.059Z,0.23
2019-02-25T06:20:47.047Z,0.36
2019-02-25T06:21:47.036Z,0.43
2019-02-25T06:22:47.088Z,0.32
2019-02-25T06:23:47.017Z,0.43
2019-02-25T06:24:47.003Z,0.44
2019-02-25T06:25:46.989Z,0.43
2019-02-25T06:26:46.975Z,0.43
2019-02-25T06:27:46.973Z,0.44
2019-02-25T06:28:46.957Z,0.47
2019-02-25T06:29:46.941Z,0.49
2019-02-25T06:30:46.931Z,0.41
2019-02-25T06:31:46.919Z,0.46
2019-02-25T06:32:46.907Z,0.49
2019-02-25T06:33:47.575Z,0.52
2019-02-25T06:34:46.886Z,0.55
2019-02-25T06:35:46.873Z,0.55
2019-02-25T06:36:46.862Z,0.52
2019-02-25T06:37:46.856Z,0.62
2019-02-25T06:38:46.840Z,0.65
2019-02-25T06:39:46.829Z,0.59
2019-02-25T06:40:46.816Z,0.63
2019-02-25T06:41:46.802Z,0.60
2019-02-25T06:42:46.792Z,0.68
2019-02-25T06:43:46.780Z,0.62
2019-02-25T06:44:46.769Z,0.59
2019-02-25T06:45:46.758Z,0.59
2019-02-25T06:46:46.748Z,0.62
2019-02-25T06:47:46.735Z,0.76
2019-02-25T06:48:46.724Z,0.73
2019-02-25T06:49:46.713Z,0.66
2019-02-25T06:50:46.699Z,0.88
2019-02-25T06:51:46.687Z,0.80
2019-02-25T06:52:46.678Z,0.92
2019-02-25T06:53:46.673Z,0.86
2019-02-25T06:54:46.656Z,0.92
2019-02-25T06:55:46.643Z,0.87
2019-02-25T06:56:46.636Z,0.99
2019-02-25T06:57:46.619Z,1.05
2019-02-25T06:58:46.617Z,0.88
2019-02-25T06:59:46.598Z,0.98
2019-02-25T07:00:46.586Z,1.12
2019-02-25T07:01:46.574Z,1.13
2019-02-25T07:02:46.563Z,1.12
2019-02-25T07:03:46.553Z,1.23
2019-02-25T07:04:46.542Z,1.26
2019-02-25T07:05:46.531Z,1.34
2019-02-25T07:06:46.516Z,1.37
2019-02-25T07:07:46.505Z,1.34
2019-02-25T07:08:46.500Z,1.41
2019-02-25T07:09:46.485Z,1.42
2019-02-25T07:10:46.471Z,1.40
2019-02-25T07:11:46.462Z,1.41
2019-02-25T07:12:46.500Z,1.45
2019-02-25T07:13:46.438Z,1.66
2019-02-25T07:14:47.459Z,1.63
2019-02-25T07:15:46.415Z,1.67
2019-02-25T07:16:46.408Z,1.70
2019-02-25T07:17:46.394Z,1.77
2019-02-25T07:18:46.385Z,1.84
2019-02-25T07:19:46.371Z,1.94
2019-02-25T07:20:46.359Z,2.04
2019-02-25T07:21:46.359Z,2.14
2019-02-25T07:22:46.338Z,2.10
2019-02-25T07:23:46.324Z,2.14
2019-02-25T07:24:52.624Z,2.26
2019-02-25T07:25:46.307Z,2.35
2019-02-25T07:26:46.294Z,2.31
2019-02-25T07:27:46.280Z,2.33
2019-02-25T07:28:46.276Z,2.46
2019-02-25T07:29:46.265Z,2.44
2019-02-25T07:30:46.250Z,2.57
2019-02-25T07:31:46.241Z,2.60
2019-02-25T07:32:46.230Z,2.65
2019-02-25T07:33:46.218Z,2.71
2019-02-25T07:34:46.210Z,2.85
2019-02-25T07:35:46.202Z,2.86
2019-02-25T07:36:46.185Z,2.89
2019-02-25T07:37:46.175Z,2.89
2019-02-25T07:38:46.162Z,2.97
2019-02-25T07:39:46.151Z,2.93
2019-02-25T07:40:46.150Z,3.03
2019-02-25T07:41:46.128Z,3.04
2019-02-25T07:42:46.120Z,3.21
2019-02-25T07:43:46.112Z,3.23
2019-02-25T07:44:46.095Z,3.28
2019-02-25T07:45:46.091Z,3.29
2019-02-25T07:46:46.080Z,3.37
2019-02-25T07:47:46.066Z,3.40
2019-02-25T07:48:46.060Z,3.44
2019-02-25T07:49:46.052Z,3.51
2019-02-25T07:50:47.403Z,3.59
2019-02-25T07:51:46.024Z,3.62
2019-02-25T07:52:46.016Z,3.76
2019-02-25T07:53:46.005Z,3.70
2019-02-25T07:54:45.995Z,3.84
2019-02-25T07:55:45.985Z,3.87
2019-02-25T07:56:45.976Z,3.86
2019-02-25T07:57:45.962Z,3.83
2019-02-25T07:58:45.949Z,3.86
2019-02-25T07:59:45.940Z,3.99
2019-02-25T08:00:45.930Z,4.02
2019-02-25T08:01:45.920Z,4.10
2019-02-25T08:02:45.911Z,4.14
2019-02-25T08:03:45.901Z,4.17
2019-02-25T08:04:45.891Z,4.30
2019-02-25T08:05:45.911Z,4.31
2019-02-25T08:06:45.885Z,4.34
2019-02-25T08:07:45.882Z,4.42
2019-02-25T08:08:45.853Z,4.45
2019-02-25T08:09:45.841Z,4.58
2019-02-25T08:10:45.829Z,4.59
2019-02-25T08:11:45.824Z,4.68
2019-02-25T08:12:45.810Z,4.68
2019-02-25T08:13:45.803Z,4.68
2019-02-25T08:14:45.792Z,4.78
2019-02-25T08:15:45.780Z,4.73
2019-02-25T08:16:45.770Z,4.86
2019-02-25T08:17:45.766Z,4.84
2019-02-25T08:18:45.749Z,4.92
2019-02-25T08:19:45.743Z,4.93
2019-02-25T08:20:45.731Z,4.94
2019-02-25T08:21:45.720Z,5.00
2019-02-25T08:22:45.712Z,5.12
2019-02-25T08:23:45.701Z,5.08
2019-02-25T08:24:45.696Z,5.08
2019-02-25T08:25:45.681Z,5.15
2019-02-25T08:26:45.670Z,5.15
2019-02-25T08:27:45.667Z,5.20
2019-02-25T08:28:45.656Z,5.23
2019-02-25T08:29:45.642Z,5.33
2019-02-25T08:30:45.636Z,5.43
2019-02-25T08:31:45.629Z,5.53
2019-02-25T08:32:45.615Z,5.46
2019-02-25T08:33:45.604Z,5.47
2019-02-25T08:34:45.597Z,5.47
2019-02-25T08:35:45.587Z,5.57
2019-02-25T08:36:45.580Z,5.64
2019-02-25T08:37:45.569Z,5.64
2019-02-25T08:38:45.560Z,5.69
2019-02-25T08:39:45.549Z,5.80
2019-02-25T08:40:45.539Z,5.79
2019-02-25T08:41:45.529Z,5.72
2019-02-25T08:42:45.519Z,5.79
2019-02-25T08:43:45.510Z,5.87
2019-02-25T08:44:45.548Z,5.98
2019-02-25T08:45:45.492Z,6.04
2019-02-25T08:46:45.482Z,5.99
2019-02-25T08:47:45.490Z,5.99
2019-02-25T08:48:45.465Z,6.09
2019-02-25T08:49:45.454Z,6.08
2019-02-25T08:50:45.449Z,6.12
2019-02-25T08:51:45.436Z,6.11
2019-02-25T08:52:45.428Z,6.16
2019-02-25T08:53:45.420Z,6.12
2019-02-25T08:54:45.410Z,6.12
2019-02-25T08:55:45.393Z,6.16
2019-02-25T08:56:45.418Z,6.24
2019-02-25T08:57:45.390Z,6.27
2019-02-25T08:58:45.373Z,6.27
2019-02-25T08:59:45.359Z,6.35
2019-02-25T09:00:45.359Z,6.33
2019-02-25T09:01:45.347Z,6.54
2019-02-25T09:02:45.334Z,6.49
2019-02-25T09:03:45.328Z,6.54
2019-02-25T09:04:45.350Z,6.51
2019-02-25T09:05:45.310Z,6.57
2019-02-25T09:06:45.298Z,6.62
2019-02-25T09:07:45.293Z,6.67
2019-02-25T09:08:45.281Z,6.77
2019-02-25T09:09:45.275Z,6.79
2019-02-25T09:10:45.267Z,6.84
2019-02-25T09:11:45.253Z,6.88
2019-02-25T09:12:45.252Z,6.88
2019-02-25T09:13:45.240Z,6.95
2019-02-25T09:14:45.227Z,7.13
2019-02-25T09:15:45.559Z,7.10
2019-02-25T09:16:45.419Z,7.28
2019-02-25T09:17:45.199Z,7.23
2019-02-25T09:18:45.193Z,7.23
2019-02-25T09:19:45.182Z,7.23
2019-02-25T09:20:45.177Z,7.35
2019-02-25T09:21:46.397Z,7.39
2019-02-25T09:22:45.162Z,7.40
2019-02-25T09:23:45.151Z,7.43
2019-02-25T09:24:45.140Z,7.53
2019-02-25T09:25:45.130Z,7.54
2019-02-25T09:26:45.122Z,7.63
2019-02-25T09:27:45.116Z,7.54
2019-02-25T09:28:45.109Z,7.61
2019-02-25T09:29:45.121Z,7.70
2019-02-25T09:30:45.087Z,7.77
2019-02-25T09:31:45.094Z,7.85
2019-02-25T09:32:45.073Z,8.03
2019-02-25T09:33:45.063Z,8.01
2019-02-25T09:34:46.965Z,8.09
2019-02-25T09:35:45.052Z,8.10
2019-02-25T09:36:45.042Z,8.18
2019-02-25T09:37:45.028Z,8.19
2019-02-25T09:38:45.018Z,8.27
2019-02-25T09:39:45.010Z,8.18
2019-02-25T09:40:45.002Z,8.33
2019-02-25T09:41:44.995Z,8.37
2019-02-25T09:42:44.984Z,8.41
2019-02-25T09:43:44.984Z,8.48
2019-02-25T09:44:44.973Z,8.51
2019-02-25T09:45:44.961Z,8.52
2019-02-25T09:46:44.954Z,8.55
2019-02-25T09:47:44.945Z,8.53
2019-02-25T09:48:44.941Z,8.60
2019-02-25T09:49:44.932Z,8.71
2019-02-25T09:50:44.922Z,8.67
2019-02-25T09:51:44.913Z,8.76
2019-02-25T09:52:44.903Z,8.79
2019-02-25T09:53:44.897Z,8.81
2019-02-25T09:54:44.887Z,8.88
2019-02-25T09:55:44.882Z,8.92
2019-02-25T09:56:44.872Z,8.87
2019-02-25T09:57:44.863Z,9.00
2019-02-25T09:58:44.857Z,8.95
2019-02-25T09:59:44.851Z,9.00
2019-02-25T10:00:46.177Z,9.13
2019-02-25T10:01:44.838Z,9.22
2019-02-25T10:02:44.839Z,9.22
2019-02-25T10:03:44.819Z,9.26
2019-02-25T10:04:44.814Z,9.28
2019-02-25T10:05:46.344Z,9.23
2019-02-25T10:06:44.841Z,9.23
2019-02-25T10:07:44.788Z,9.29
2019-02-25T10:08:46.517Z,9.26
2019-02-25T10:09:44.772Z,9.34
2019-02-25T10:10:44.765Z,9.37
2019-02-25T10:11:44.776Z,9.50
2019-02-25T10:12:44.750Z,9.56
2019-02-25T10:13:44.743Z,9.48
2019-02-25T10:14:44.733Z,9.55
2019-02-25T10:15:44.727Z,9.61
2019-02-25T10:16:44.719Z,9.58
2019-02-25T10:17:44.715Z,9.66
2019-02-25T10:18:44.704Z,9.68
2019-02-25T10:19:44.700Z,9.84
2019-02-25T10:20:44.688Z,9.82
2019-02-25T10:21:44.683Z,9.87
2019-02-25T10:22:44.677Z,10.01
2019-02-25T10:23:44.772Z,9.94
2019-02-25T10:24:44.665Z,9.98
2019-02-25T10:25:44.653Z,10.01
2019-02-25T10:26:44.645Z,9.94
2019-02-25T10:27:44.640Z,9.89
2019-02-25T10:28:44.633Z,10.01
2019-02-25T10:29:44.624Z,10.01
2019-02-25T10:30:52.582Z,10.04
2019-02-25T10:31:44.611Z,10.07
2019-02-25T10:32:44.759Z,10.17
2019-02-25T10:33:44.596Z,10.28
2019-02-25T10:34:44.586Z,10.30
2019-02-25T10:35:44.585Z,10.22
2019-02-25T10:36:46.147Z,10.28
2019-02-25T10:37:44.567Z,10.28
2019-02-25T10:38:44.561Z,10.31
2019-02-25T10:39:45.422Z,10.28
2019-02-25T10:40:45.394Z,10.38
2019-02-25T10:41:44.539Z,10.38
2019-02-25T10:42:44.530Z,10.46
2019-02-25T10:43:44.548Z,10.48
2019-02-25T10:44:44.521Z,10.56
2019-02-25T10:45:45.425Z,10.59
2019-02-25T10:46:44.966Z,10.67
2019-02-25T10:47:46.446Z,10.74
2019-02-25T10:48:44.493Z,10.75
2019-02-25T10:49:44.484Z,10.64
2019-02-25T10:50:44.481Z,10.75
2019-02-25T10:51:45.663Z,10.75
2019-02-25T10:52:44.912Z,10.76
2019-02-25T10:53:45.212Z,10.78
2019-02-25T10:54:44.454Z,10.72
2019-02-25T10:55:46.680Z,10.74
2019-02-25T10:56:44.440Z,10.74
2019-02-25T10:57:44.433Z,10.90
2019-02-25T10:58:44.425Z,10.89
2019-02-25T10:59:44.419Z,10.86
2019-02-25T11:00:45.942Z,11.02
2019-02-25T11:01:45.786Z,11.10
2019-02-25T11:02:46.265Z,11.17
2019-02-25T11:03:45.619Z,11.15
2019-02-25T11:04:44.384Z,11.12
2019-02-25T11:05:44.378Z,11.19
2019-02-25T11:06:44.371Z,11.19
2019-02-25T11:07:44.364Z,11.19
2019-02-25T11:08:45.714Z,11.30
2019-02-25T11:09:45.978Z,11.43
2019-02-25T11:10:46.180Z,11.44
2019-02-25T11:11:44.338Z,11.44
2019-02-25T11:12:44.337Z,11.44
2019-02-25T11:13:44.327Z,11.43
2019-02-25T11:14:44.323Z,11.51
2019-02-25T11:15:46.158Z,11.43
2019-02-25T11:16:45.941Z,11.45
2019-02-25T11:17:45.539Z,11.51
2019-02-25T11:18:44.294Z,11.70
2019-02-25T11:19:44.290Z,11.75
2019-02-25T11:20:44.282Z,11.70
2019-02-25T11:21:44.370Z,11.86
2019-02-25T11:22:46.009Z,11.78
2019-02-25T11:23:45.183Z,11.84
2019-02-25T11:24:44.263Z,11.83
2019-02-25T11:25:44.264Z,11.91
2019-02-25T11:26:44.250Z,11.97
2019-02-25T11:27:44.259Z,12.03
2019-02-25T11:28:44.235Z,12.02
2019-02-25T11:29:46.105Z,12.03
2019-02-25T11:30:44.983Z,12.04
2019-02-25T11:31:45.293Z,11.99
2019-02-25T11:32:44.210Z,11.99
2019-02-25T11:33:44.203Z,11.94
2019-02-25T11:34:44.208Z,11.97
2019-02-25T11:35:45.813Z,12.00
2019-02-25T11:36:44.187Z,12.02
2019-02-25T11:37:44.178Z,12.07
2019-02-25T11:38:44.174Z,12.10
2019-02-25T11:39:44.169Z,12.20
2019-02-25T11:40:44.165Z,12.07
2019-02-25T11:41:44.177Z,12.17
2019-02-25T11:42:44.149Z,12.21
2019-02-25T11:43:45.869Z,12.24
2019-02-25T11:44:44.138Z,12.29
2019-02-25T11:45:44.147Z,12.35
2019-02-25T11:46:44.129Z,12.40
2019-02-25T11:47:44.134Z,12.42
2019-02-25T11:48:44.130Z,12.43
2019-02-25T11:49:44.110Z,12.42
2019-02-25T11:50:44.818Z,12.53
2019-02-25T11:51:44.097Z,12.46
2019-02-25T11:52:44.096Z,12.57
2019-02-25T11:53:44.086Z,12.62
2019-02-25T11:54:44.081Z,12.72
2019-02-25T11:55:44.073Z,12.64
2019-02-25T11:56:44.069Z,12.61
2019-02-25T11:57:44.118Z,12.62
2019-02-25T11:58:44.062Z,12.76
2019-02-25T11:59:44.062Z,12.78
2019-02-25T12:00:44.049Z,12.83
2019-02-25T12:01:44.042Z,13.01
2019-02-25T12:02:44.035Z,12.95
2019-02-25T12:03:44.029Z,12.87
2019-02-25T12:04:44.021Z,12.95
2019-02-25T12:05:44.019Z,13.01
2019-02-25T12:06:44.017Z,13.13
2019-02-25T12:07:44.014Z,13.11
2019-02-25T12:08:44.003Z,13.15
2019-02-25T12:09:43.998Z,13.09
2019-02-25T12:10:43.994Z,13.13
2019-02-25T12:11:43.987Z,13.27
2019-02-25T12:12:43.981Z,13.18
2019-02-25T12:13:43.986Z,13.22
2019-02-25T12:14:43.970Z,13.27
2019-02-25T12:15:43.966Z,13.20
2019-02-25T12:16:43.960Z,13.18
2019-02-25T12:17:43.952Z,13.30
2019-02-25T12:18:43.950Z,13.33
2019-02-25T12:19:43.952Z,13.50
2019-02-25T12:20:43.939Z,13.49
2019-02-25T12:21:43.933Z,13.44
2019-02-25T12:22:43.928Z,13.59
2019-02-25T12:23:43.928Z,13.67
2019-02-25T12:24:43.932Z,13.63
2019-02-25T12:25:43.913Z,13.63
2019-02-25T12:26:43.907Z,13.56
2019-02-25T12:27:43.903Z,13.50
2019-02-25T12:28:43.904Z,13.59
2019-02-25T12:29:43.955Z,13.60
2019-02-25T12:30:43.889Z,13.67
2019-02-25T12:31:43.886Z,13.63
2019-02-25T12:32:43.880Z,13.70
2019-02-25T12:33:43.874Z,13.67
2019-02-25T12:34:43.868Z,13.70
2019-02-25T12:35:43.864Z,13.67
2019-02-25T12:36:43.862Z,13.68
2019-02-25T12:37:43.854Z,13.68
2019-02-25T12:38:43.851Z,13.68
2019-02-25T12:39:43.845Z,13.62
2019-02-25T12:40:43.841Z,13.67
2019-02-25T12:41:43.884Z,13.67
2019-02-25T12:42:43.830Z,13.77
2019-02-25T12:43:43.829Z,13.70
2019-02-25T12:44:43.824Z,13.67
2019-02-25T12:45:43.816Z,13.79
2019-02-25T12:46:43.813Z,13.79
2019-02-25T12:47:43.807Z,13.78
2019-02-25T12:48:43.803Z,13.70
2019-02-25T12:49:43.797Z,13.75
2019-02-25T12:50:43.791Z,13.70
2019-02-25T12:51:43.789Z,13.77
2019-02-25T12:52:43.782Z,13.78
2019-02-25T12:53:43.778Z,13.86
2019-02-25T12:54:43.777Z,13.87
2019-02-25T12:55:43.770Z,13.78
2019-02-25T12:56:43.767Z,13.79
2019-02-25T12:57:43.774Z,13.85
2019-02-25T12:58:43.758Z,13.83
2019-02-25T12:59:43.752Z,13.81
2019-02-25T13:00:43.749Z,13.79
2019-02-25T13:01:43.746Z,13.90
2019-02-25T13:02:43.744Z,13.96
2019-02-25T13:03:43.733Z,13.90
2019-02-25T13:04:43.728Z,14.05
2019-02-25T13:05:43.721Z,13.95
2019-02-25T13:06:43.723Z,13.95
2019-02-25T13:07:43.717Z,13.97
2019-02-25T13:08:43.711Z,13.95
2019-02-25T13:09:43.702Z,13.81
2019-02-25T13:10:43.704Z,13.87
2019-02-25T13:11:43.698Z,13.99
2019-02-25T13:12:43.693Z,13.93